Time;durP1;ratioP1;P1;durP2;ratioP2;P2;SDS_P1;SDS_P2;PMS_P1;PMS_P2;Temp;Humidity;BMP_temperature;BMP_pressure;BME280_temperature;BME280_humidity;BME280_pressure;Samples;Min_cycle;Max_cycle;Signal;HPM_P1;HPM_P2
2020/12/15 00:02:06;;;;;;;21.52;12.28;;;;;;;0.40;82.78;100752.45;1783782;80;25697;-55
2020/12/15 00:04:32;;;;;;;22.45;11.57;;;;;;;0.39;82.67;100760.93;1783848;80;25621;-56
2020/12/15 00:06:59;;;;;;;20.43;12.13;;;;;;;0.38;82.69;100772.63;1783855;80;25698;-56
2020/12/15 00:09:26;;;;;;;21.48;11.70;;;;;;;0.39;82.80;100778.23;1784032;80;25765;-57
2020/12/15 00:11:54;;;;;;;21.80;12.75;;;;;;;0.40;82.75;100780.39;1783823;80;26248;-55
2020/12/15 00:14:21;;;;;;;26.60;13.20;;;;;;;0.41;82.85;100779.33;1783889;80;25634;-58
2020/12/15 00:16:48;;;;;;;21.80;12.50;;;;;;;0.43;82.86;100766.10;1783878;80;25583;-54
2020/12/15 00:19:14;;;;;;;24.45;13.65;;;;;;;0.45;82.87;100764.55;1783842;80;25739;-57
2020/12/15 00:21:43;;;;;;;22.87;14.30;;;;;;;0.46;82.82;100751.01;1783824;80;25761;-55
2020/12/15 00:24:10;;;;;;;23.00;12.35;;;;;;;0.48;82.86;100746.26;1783901;80;25979;-57
2020/12/15 00:26:37;;;;;;;19.82;11.80;;;;;;;0.47;82.79;100739.30;1783708;80;25700;-59
2020/12/15 00:29:04;;;;;;;20.43;12.33;;;;;;;0.48;82.71;100750.78;1784081;80;25739;-55
2020/12/15 00:31:35;;;;;;;21.12;12.18;;;;;;;0.46;82.64;100749.67;1786020;80;25679;-55
2020/12/15 00:34:03;;;;;;;18.82;12.07;;;;;;;0.44;82.71;100761.05;1786104;80;25866;-57
2020/12/15 00:36:31;;;;;;;21.23;12.68;;;;;;;0.44;82.85;100763.71;1785919;80;26666;-54
2020/12/15 00:38:58;;;;;;;25.12;13.05;;;;;;;0.46;82.88;100760.83;1786015;80;25734;-57
2020/12/15 00:41:25;;;;;;;24.52;13.22;;;;;;;0.45;82.88;100757.36;1786084;80;25705;-53
2020/12/15 00:43:52;;;;;;;23.98;13.80;;;;;;;0.45;82.88;100758.69;1785876;80;25670;-57
2020/12/15 00:46:19;;;;;;;25.30;14.43;;;;;;;0.45;82.91;100757.36;1786160;80;25654;-57
2020/12/15 00:48:47;;;;;;;24.57;13.60;;;;;;;0.45;82.96;100761.35;1786025;80;26742;-56
2020/12/15 00:51:18;;;;;;;26.52;15.40;;;;;;;0.46;82.96;100766.14;1785918;80;25706;-53
2020/12/15 00:53:46;;;;;;;25.05;14.10;;;;;;;0.46;82.94;100767.48;1785687;80;25659;-56
2020/12/15 00:56:14;;;;;;;26.48;14.60;;;;;;;0.45;82.94;100765.34;1786049;80;25705;-53
2020/12/15 00:58:42;;;;;;;25.35;14.35;;;;;;;0.45;82.99;100766.67;1786009;80;26291;-56
2020/12/15 01:01:10;;;;;;;22.67;13.75;;;;;;;0.46;82.94;100762.16;1786256;80;27087;-56
2020/12/15 01:03:37;;;;;;;28.95;14.95;;;;;;;0.46;83.01;100762.98;1785967;80;25756;-55
2020/12/15 01:06:05;;;;;;;24.63;14.20;;;;;;;0.46;83.03;100766.14;1785997;80;25590;-55
2020/12/15 01:08:32;;;;;;;24.43;14.43;;;;;;;0.47;83.00;100760.59;1786058;80;25650;-56
2020/12/15 01:10:59;;;;;;;26.05;14.30;;;;;;;0.46;82.98;100761.66;1785923;80;25621;-55
2020/12/15 01:13:26;;;;;;;29.37;15.18;;;;;;;0.46;82.97;100762.98;1786051;80;26190;-56
2020/12/15 01:15:52;;;;;;;25.68;14.85;;;;;;;0.45;82.93;100760.02;1786080;80;25683;-56
2020/12/15 01:18:26;;;;;;;24.82;14.38;;;;;;;0.46;82.98;100758.16;1786239;80;25693;-57
2020/12/15 01:20:55;;;;;;;27.60;15.35;;;;;;;0.46;82.92;100760.33;1786292;80;25651;-55
2020/12/15 01:23:25;;;;;;;27.15;14.90;;;;;;;0.46;82.96;100762.16;1786436;80;25654;-56
2020/12/15 01:25:52;;;;;;;25.88;13.83;;;;;;;0.46;83.07;100752.34;1759557;80;26898;-56
2020/12/15 01:28:19;;;;;;;26.12;15.10;;;;;;;0.47;83.05;100751.81;1786162;80;25579;-56
2020/12/15 01:30:45;;;;;;;25.85;13.83;;;;;;;0.47;83.06;100755.27;1786143;80;25667;-56
2020/12/15 01:33:12;;;;;;;25.25;15.18;;;;;;;0.48;83.00;100760.90;1786145;80;25702;-56
2020/12/15 01:35:38;;;;;;;26.55;15.08;;;;;;;0.48;83.10;100758.77;1786186;80;25657;-54
2020/12/15 01:38:05;;;;;;;26.75;14.75;;;;;;;0.49;83.09;100760.37;1786266;80;26414;-56
2020/12/15 01:40:32;;;;;;;26.90;14.25;;;;;;;0.51;83.11;100760.45;1786011;80;25621;-55
2020/12/15 01:42:58;;;;;;;27.82;15.38;;;;;;;0.50;82.92;100760.14;1786274;80;25574;-54
2020/12/15 01:45:25;;;;;;;26.52;15.32;;;;;;;0.51;83.03;100764.44;1786163;80;25682;-55
2020/12/15 01:47:52;;;;;;;26.23;14.98;;;;;;;0.50;82.94;100769.98;1786149;80;25703;-56
2020/12/15 01:50:20;;;;;;;27.30;14.30;;;;;;;0.49;82.91;100761.70;1786056;80;26408;-55
2020/12/15 01:52:47;;;;;;;27.45;15.05;;;;;;;0.49;82.89;100761.70;1786022;80;25830;-55
2020/12/15 01:55:16;;;;;;;30.17;15.13;;;;;;;0.48;82.91;100767.55;1786106;80;25721;-53
2020/12/15 01:57:45;;;;;;;26.27;14.47;;;;;;;0.47;82.81;100766.45;1786356;80;25781;-56
2020/12/15 02:00:12;;;;;;;26.57;14.50;;;;;;;0.45;82.94;100764.02;1786144;80;25717;-55
2020/12/15 02:02:41;;;;;;;25.00;14.28;;;;;;;0.47;82.92;100767.25;1786162;80;26930;-55
2020/12/15 02:05:08;;;;;;;23.35;14.78;;;;;;;0.47;82.94;100762.45;1785905;80;30221;-54
2020/12/15 02:07:36;;;;;;;25.80;14.58;;;;;;;0.47;82.97;100759.27;1786274;80;25774;-55
2020/12/15 02:10:04;;;;;;;21.42;13.58;;;;;;;0.46;82.89;100762.98;1786078;80;25705;-56
2020/12/15 02:12:31;;;;;;;25.08;15.10;;;;;;;0.45;82.90;100764.55;1786174;80;25677;-53
2020/12/15 02:14:57;;;;;;;26.17;14.83;;;;;;;0.42;82.88;100765.80;1786232;80;26257;-54
2020/12/15 02:17:24;;;;;;;28.05;15.08;;;;;;;0.42;82.96;100763.14;1786206;80;25714;-53
2020/12/15 02:20:05;;;;;;;25.77;14.28;;;;;;;0.41;82.99;100755.37;1786096;80;25719;-53
2020/12/15 02:22:32;;;;;;;24.02;14.38;;;;;;;0.42;83.12;100761.00;1786151;80;25611;-56
2020/12/15 02:24:58;;;;;;;25.72;15.15;;;;;;;0.43;83.18;100755.45;1786198;80;25690;-56
2020/12/15 02:27:26;;;;;;;28.15;15.80;;;;;;;0.46;83.29;100755.00;1786154;80;25823;-54
2020/12/15 02:29:52;;;;;;;27.42;15.85;;;;;;;0.48;83.18;100760.09;1786065;80;25690;-56
2020/12/15 02:32:19;;;;;;;27.73;15.10;;;;;;;0.48;83.08;100756.10;1786165;80;25745;-57
2020/12/15 02:34:46;;;;;;;27.00;15.15;;;;;;;0.47;83.08;100754.47;1786039;80;26355;-54
2020/12/15 02:37:13;;;;;;;29.95;14.93;;;;;;;0.46;83.09;100752.84;1786182;80;25582;-55
2020/12/15 02:39:41;;;;;;;27.48;15.08;;;;;;;0.47;83.19;100744.63;1786228;80;26395;-55
2020/12/15 02:42:08;;;;;;;22.70;14.18;;;;;;;0.47;83.15;100745.95;1785951;80;26249;-57
2020/12/15 02:44:34;;;;;;;29.27;15.53;;;;;;;0.49;83.14;100743.06;1786203;80;25780;-55
2020/12/15 02:47:01;;;;;;;30.15;16.05;;;;;;;0.47;83.11;100743.30;1786070;80;25687;-52
2020/12/15 02:49:27;;;;;;;28.42;15.15;;;;;;;0.46;83.17;100736.87;1786047;80;25987;-58
2020/12/15 02:51:54;;;;;;;26.80;15.90;;;;;;;0.47;83.15;100742.49;1786017;80;26133;-56
2020/12/15 02:54:21;;;;;;;29.25;15.18;;;;;;;0.44;83.20;100743.75;1785977;80;25689;-56
2020/12/15 02:56:47;;;;;;;27.15;15.03;;;;;;;0.44;83.27;100743.75;1786205;80;25623;-56
2020/12/15 02:59:14;;;;;;;30.92;16.27;;;;;;;0.44;83.28;100746.41;1786193;80;25586;-53
2020/12/15 03:01:46;;;;;;;32.30;16.70;;;;;;;0.35;83.25;100728.64;1786055;80;25662;-53
2020/12/15 03:04:13;;;;;;;30.20;16.32;;;;;;;0.44;83.29;100738.42;1786006;80;25921;-55
2020/12/15 03:06:40;;;;;;;25.85;14.87;;;;;;;0.43;83.35;100735.49;1785825;80;25785;-57
2020/12/15 03:09:09;;;;;;;27.60;15.55;;;;;;;0.44;83.40;100740.28;1785824;80;25690;-55
2020/12/15 03:11:36;;;;;;;30.65;16.05;;;;;;;0.42;83.34;100739.19;1785790;80;25706;-57
2020/12/15 03:14:04;;;;;;;30.17;15.98;;;;;;;0.42;83.42;100735.72;1785685;80;25734;-56
2020/12/15 03:16:30;;;;;;;29.67;15.48;;;;;;;0.41;83.33;100742.91;1786259;80;27134;-57
2020/12/15 03:18:57;;;;;;;29.85;15.80;;;;;;;0.39;83.42;100744.96;1785982;80;25615;-56
2020/12/15 03:21:24;;;;;;;27.93;15.43;;;;;;;0.38;83.43;100752.67;1786169;80;25728;-56
2020/12/15 03:23:52;;;;;;;27.32;15.25;;;;;;;0.35;83.39;100750.46;1786084;80;25696;-56
2020/12/15 03:26:19;;;;;;;28.38;14.58;;;;;;;0.30;83.37;100749.81;1786199;80;25748;-57
2020/12/15 03:28:45;;;;;;;30.32;15.15;;;;;;;0.28;83.47;100743.11;1786054;80;25971;-56
2020/12/15 03:31:12;;;;;;;32.93;16.30;;;;;;;0.26;83.62;100747.86;1785993;80;25778;-57
2020/12/15 03:33:39;;;;;;;29.82;15.63;;;;;;;0.21;83.60;100752.53;1786299;80;25694;-55
2020/12/15 03:36:06;;;;;;;29.52;16.05;;;;;;;0.20;83.69;100750.89;1786362;80;25664;-56
2020/12/15 03:38:33;;;;;;;28.45;15.23;;;;;;;0.16;83.72;100749.22;1786353;80;25660;-57
2020/12/15 03:40:59;;;;;;;27.32;14.30;;;;;;;0.14;83.69;100750.50;1786441;80;26304;-56
2020/12/15 03:43:26;;;;;;;34.98;16.05;;;;;;;0.12;83.76;100740.08;1786270;80;25789;-57
2020/12/15 03:45:52;;;;;;;29.12;14.55;;;;;;;0.09;83.71;100737.88;1786257;80;25710;-55
2020/12/15 03:48:19;;;;;;;32.95;15.75;;;;;;;0.05;83.70;100739.88;1786312;80;25746;-56
2020/12/15 03:50:46;;;;;;;30.37;13.40;;;;;;;-0.01;83.70;100736.29;1786345;80;25753;-57
2020/12/15 03:53:13;;;;;;;32.50;13.48;;;;;;;-0.04;83.69;100736.73;1786275;80;26144;-56
2020/12/15 03:55:39;;;;;;;27.07;13.93;;;;;;;-0.07;83.75;100737.19;1786235;80;25694;-57
2020/12/15 03:58:06;;;;;;;32.30;13.50;;;;;;;-0.11;83.67;100732.84;1786101;80;25721;-57
2020/12/15 04:00:33;;;;;;;30.77;14.87;;;;;;;-0.14;83.68;100733.29;1785975;80;26263;-57
2020/12/15 04:03:00;;;;;;;30.50;13.35;;;;;;;-0.16;83.78;100740.69;1786228;80;26247;-55
2020/12/15 04:05:26;;;;;;;27.17;13.32;;;;;;;-0.18;83.88;100740.11;1786295;80;26196;-56
2020/12/15 04:07:53;;;;;;;26.27;13.50;;;;;;;-0.20;83.91;100732.89;1786319;80;25671;-56
2020/12/15 04:10:20;;;;;;;30.43;15.28;;;;;;;-0.21;83.91;100733.38;1786291;80;25947;-56
2020/12/15 04:12:46;;;;;;;29.57;14.15;;;;;;;-0.21;83.96;100743.22;1786385;80;25709;-57
2020/12/15 04:15:13;;;;;;;28.32;14.58;;;;;;;-0.24;84.02;100738.34;1786362;80;26238;-55
2020/12/15 04:17:39;;;;;;;30.75;14.33;;;;;;;-0.24;84.10;100739.67;1786443;80;25893;-56
2020/12/15 04:20:07;;;;;;;29.18;14.18;;;;;;;-0.25;84.17;100747.38;1786146;80;25804;-56
2020/12/15 04:22:34;;;;;;;29.65;15.60;;;;;;;-0.25;84.19;100742.06;1786427;80;25919;-56
2020/12/15 04:25:01;;;;;;;31.33;14.80;;;;;;;-0.28;84.31;100739.32;1786354;80;25869;-53
2020/12/15 04:27:28;;;;;;;33.40;15.18;;;;;;;-0.28;84.35;100739.32;1786391;80;25697;-52
2020/12/15 04:29:55;;;;;;;36.35;15.18;;;;;;;-0.27;84.45;100738.82;1786368;80;27046;-56
2020/12/15 04:32:23;;;;;;;36.98;15.90;;;;;;;-0.28;84.49;100738.52;1785994;80;25836;-56
2020/12/15 04:34:50;;;;;;;36.10;16.30;;;;;;;-0.27;84.55;100744.14;1785873;80;25682;-54
2020/12/15 04:37:18;;;;;;;37.23;16.07;;;;;;;-0.29;84.63;100740.38;1786121;80;25775;-55
2020/12/15 04:39:45;;;;;;;42.90;17.02;;;;;;;-0.31;84.68;100740.29;1786136;80;25690;-54
2020/12/15 04:42:13;;;;;;;40.78;17.23;;;;;;;-0.32;84.92;100736.00;1786087;80;26348;-56
2020/12/15 04:44:40;;;;;;;38.45;16.10;;;;;;;-0.33;84.86;100742.37;1786030;80;25610;-56
2020/12/15 04:47:33;;;;;;;39.78;17.07;;;;;;;-0.32;85.03;100750.62;1786117;80;26309;-56
2020/12/15 04:50:07;;;;;;;37.45;15.93;;;;;;;-0.32;85.04;100749.29;1785993;80;25760;-57
2020/12/15 04:52:51;;;;;;;38.23;18.37;;;;;;;-0.32;85.05;100751.45;1786210;80;25607;-56
2020/12/15 04:55:20;;;;;;;49.20;19.30;;;;;;;-0.29;85.09;100755.48;1786331;80;27208;-56
2020/12/15 04:57:48;;;;;;;34.97;13.50;;;;;;;-0.29;85.20;100751.50;1786391;80;25815;-56
2020/12/15 05:00:18;;;;;;;39.65;17.82;;;;;;;-0.28;85.22;100746.49;1786272;80;25718;-54
2020/12/15 05:02:52;;;;;;;44.05;18.37;;;;;;;-0.27;85.36;100751.59;1786354;80;26324;-54
2020/12/15 05:05:20;;;;;;;44.90;18.73;;;;;;;-0.25;85.35;100747.38;1786453;80;26186;-54
2020/12/15 05:07:47;;;;;;;36.45;18.20;;;;;;;-0.25;85.38;100745.52;1786409;80;25981;-56
2020/12/15 05:10:17;;;;;;;41.65;17.48;;;;;;;-0.24;85.46;100755.63;1786095;80;25722;-56
2020/12/15 05:12:45;;;;;;;45.20;18.10;;;;;;;-0.24;85.34;100748.48;1786214;80;25634;-56
2020/12/15 05:15:18;;;;;;;38.92;18.10;;;;;;;-0.24;85.38;100756.95;1786201;80;25665;-55
2020/12/15 05:17:48;;;;;;;43.33;18.52;;;;;;;-0.23;85.50;100754.60;1786248;80;26327;-55
2020/12/15 05:20:18;;;;;;;39.67;18.35;;;;;;;-0.23;85.46;100764.71;1786189;80;26788;-55
2020/12/15 05:22:47;;;;;;;42.73;19.02;;;;;;;-0.20;85.54;100758.14;1758307;80;25635;-56
2020/12/15 05:25:30;;;;;;;42.05;18.35;;;;;;;-0.17;85.51;100765.67;1786347;80;25839;-57
2020/12/15 05:28:00;;;;;;;46.30;18.67;;;;;;;-0.14;85.48;100771.84;1786293;80;26295;-55
2020/12/15 05:30:31;;;;;;;39.85;17.57;;;;;;;-0.15;85.51;100765.42;1786314;80;25594;-53
2020/12/15 05:33:01;;;;;;;37.15;17.40;;;;;;;-0.17;85.47;100764.84;1786208;80;25762;-55
2020/12/15 05:35:33;;;;;;;41.35;17.27;;;;;;;-0.20;85.45;100764.79;1786149;80;26318;-57
2020/12/15 05:38:05;;;;;;;40.70;18.10;;;;;;;-0.22;85.39;100769.00;1786201;80;25657;-54
2020/12/15 05:40:32;;;;;;;40.33;18.65;;;;;;;-0.24;85.54;100775.07;1786317;80;25748;-54
2020/12/15 05:43:04;;;;;;;37.78;17.20;;;;;;;-0.25;85.62;100767.31;1786227;80;25697;-56
2020/12/15 05:45:33;;;;;;;42.05;19.07;;;;;;;-0.26;85.80;100771.00;1786329;80;27170;-56
2020/12/15 05:48:04;;;;;;;39.88;19.23;;;;;;;-0.28;85.69;100769.09;1786115;80;25766;-57
2020/12/15 05:50:31;;;;;;;41.37;19.15;;;;;;;-0.30;85.68;100769.84;1786143;80;25757;-51
2020/12/15 05:53:07;;;;;;;36.60;17.35;;;;;;;-0.29;85.74;100770.95;1786026;80;25783;-55
2020/12/15 05:55:33;;;;;;;39.38;18.52;;;;;;;-0.28;85.79;100777.87;1786041;80;25746;-52
2020/12/15 05:58:02;;;;;;;38.35;20.02;;;;;;;-0.28;85.78;100776.54;1786310;80;26331;-55
2020/12/15 06:00:31;;;;;;;37.55;19.75;;;;;;;-0.27;85.79;100776.05;1786222;80;25718;-54
2020/12/15 06:03:03;;;;;;;38.88;18.45;;;;;;;-0.27;85.87;100777.38;1786400;80;25835;-56
2020/12/15 06:05:32;;;;;;;37.05;18.05;;;;;;;-0.26;85.99;100758.51;1786160;80;26261;-55
2020/12/15 06:08:01;;;;;;;38.10;19.25;;;;;;;-0.25;85.82;100767.31;1786283;80;27717;-57
2020/12/15 06:10:29;;;;;;;41.85;19.67;;;;;;;-0.24;85.82;100770.25;1786152;80;25760;-57
2020/12/15 06:12:59;;;;;;;40.80;18.57;;;;;;;-0.24;85.84;100764.44;1786088;80;25746;-56
2020/12/15 06:15:28;;;;;;;40.15;19.00;;;;;;;-0.22;85.88;100765.02;1786079;80;25611;-56
2020/12/15 06:18:02;;;;;;;36.75;18.55;;;;;;;-0.21;85.92;100768.48;1786118;80;25688;-57
2020/12/15 06:20:33;;;;;;;38.85;18.45;;;;;;;-0.22;85.87;100782.30;1786189;80;25635;-57
2020/12/15 06:23:00;;;;;;;43.28;20.10;;;;;;;-0.24;85.79;100775.07;1785466;80;26364;-54
2020/12/15 06:25:33;;;;;;;44.35;21.37;;;;;;;-0.21;85.88;100776.45;1786146;80;25851;-51
2020/12/15 06:28:09;;;;;;;44.90;21.20;;;;;;;-0.20;85.96;100776.23;1786262;80;25673;-56
2020/12/15 06:30:39;;;;;;;45.63;20.85;;;;;;;-0.19;85.96;100765.06;1786197;80;25700;-55
2020/12/15 06:33:09;;;;;;;39.70;18.67;;;;;;;-0.15;85.93;100766.75;1786195;80;26109;-52
2020/12/15 06:35:37;;;;;;;40.83;19.40;;;;;;;-0.17;85.91;100765.67;1785947;80;26011;-54
2020/12/15 06:38:06;;;;;;;37.65;19.45;;;;;;;-0.20;85.93;100767.45;1786126;80;25745;-53
2020/12/15 06:40:48;;;;;;;43.30;20.65;;;;;;;-0.24;85.87;100775.07;1786266;80;25682;-54
2020/12/15 06:43:29;;;;;;;44.73;19.95;;;;;;;-0.24;85.99;100779.06;1785895;80;25692;-56
2020/12/15 06:46:07;;;;;;;43.78;20.05;;;;;;;-0.26;85.99;100781.11;1786238;80;25617;-55
2020/12/15 06:48:36;;;;;;;42.13;19.82;;;;;;;-0.26;86.00;100772.33;1786236;80;27246;-55
2020/12/15 06:51:04;;;;;;;45.78;20.48;;;;;;;-0.24;86.16;100776.90;1785675;80;25659;-48
2020/12/15 06:53:31;;;;;;;48.17;20.92;;;;;;;-0.22;86.14;100773.52;1786032;80;26271;-57
2020/12/15 06:56:03;;;;;;;44.00;21.68;;;;;;;-0.23;86.13;100770.03;1786138;80;25764;-51
2020/12/15 06:58:31;;;;;;;41.08;18.57;;;;;;;-0.23;86.04;100771.88;1786162;80;25697;-54
2020/12/15 07:00:58;;;;;;;50.33;22.32;;;;;;;-0.25;86.26;100781.41;1786195;80;26218;-49
2020/12/15 07:03:35;;;;;;;48.13;21.95;;;;;;;-0.28;86.05;100769.09;1786015;80;26057;-54
2020/12/15 07:06:15;;;;;;;48.33;21.27;;;;;;;-0.29;86.08;100780.25;1783074;80;25861;-50
2020/12/15 07:08:43;;;;;;;47.83;22.20;;;;;;;-0.30;86.22;100775.95;1786344;80;25567;-48
2020/12/15 07:11:10;;;;;;;44.83;20.82;;;;;;;-0.32;86.15;100781.19;1786043;80;25884;-55
2020/12/15 07:13:37;;;;;;;44.18;19.75;;;;;;;-0.34;86.33;100789.91;1786134;80;25704;-47
2020/12/15 07:16:04;;;;;;;41.28;19.98;;;;;;;-0.36;86.32;100789.33;1785980;80;25673;-54
2020/12/15 07:18:33;;;;;;;44.18;21.23;;;;;;;-0.36;86.36;100785.34;1784573;80;26397;-53
2020/12/15 07:21:02;;;;;;;42.55;20.00;;;;;;;-0.38;86.51;100798.33;1786454;80;25597;-57
2020/12/15 07:23:29;;;;;;;47.38;21.60;;;;;;;-0.39;86.45;100799.91;1786214;80;25610;-54
2020/12/15 07:25:56;;;;;;;42.15;20.37;;;;;;;-0.40;86.56;100792.43;1786457;80;25774;-52
2020/12/15 07:28:23;;;;;;;47.50;20.72;;;;;;;-0.39;86.66;100791.94;1786308;80;25694;-55
2020/12/15 07:30:50;;;;;;;44.83;19.98;;;;;;;-0.40;86.62;100799.60;1786449;80;25705;-55
2020/12/15 07:33:18;;;;;;;43.23;19.02;;;;;;;-0.40;86.70;100798.28;1786328;80;25628;-57
2020/12/15 07:35:45;;;;;;;46.37;20.25;;;;;;;-0.41;86.92;100796.14;1786508;80;25665;-54
2020/12/15 07:38:14;;;;;;;40.85;20.55;;;;;;;-0.41;86.96;100789.50;1786375;80;26678;-55
2020/12/15 07:40:42;;;;;;;45.98;21.17;;;;;;;-0.40;86.88;100793.77;1786268;80;25719;-55
2020/12/15 07:43:09;;;;;;;45.60;22.73;;;;;;;-0.40;86.95;100808.38;1786400;80;25657;-51
2020/12/15 07:45:35;;;;;;;47.45;21.50;;;;;;;-0.40;86.94;100803.06;1786395;80;25606;-57
2020/12/15 07:48:05;;;;;;;47.93;22.15;;;;;;;-0.38;87.15;100798.86;1786556;80;25175;-58
2020/12/15 07:50:33;;;;;;;47.75;20.70;;;;;;;-0.36;87.36;100802.63;1786477;80;25969;-57
2020/12/15 07:53:09;;;;;;;51.37;23.45;;;;;;;-0.36;87.06;100803.42;1786362;80;26226;-59
2020/12/15 07:55:37;;;;;;;52.55;22.30;;;;;;;-0.32;87.31;100819.73;1786477;80;25633;-56
2020/12/15 07:58:15;;;;;;;48.05;21.15;;;;;;;-0.34;87.16;100816.50;1786423;80;26237;-57
2020/12/15 08:00:42;;;;;;;48.17;22.37;;;;;;;-0.33;87.15;100813.62;1784950;80;25745;-58
2020/12/15 08:03:10;;;;;;;49.00;22.00;;;;;;;-0.31;87.33;100811.54;1785568;80;26247;-58
2020/12/15 08:05:37;;;;;;;43.25;21.02;;;;;;;-0.28;87.37;100811.62;1785829;80;25650;-55
2020/12/15 08:08:04;;;;;;;57.60;23.73;;;;;;;-0.27;87.26;100813.27;1785588;80;25928;-60
2020/12/15 08:10:34;;;;;;;49.05;22.75;;;;;;;-0.25;87.28;100811.98;1785816;80;25738;-59
2020/12/15 08:13:03;;;;;;;55.50;24.05;;;;;;;-0.22;87.27;100807.56;1786122;80;26317;-55
2020/12/15 08:15:43;;;;;;;53.50;21.77;;;;;;;-0.20;87.32;100804.67;1762157;80;25991;-58
2020/12/15 08:18:11;;;;;;;52.35;22.32;;;;;;;-0.18;87.43;100805.25;1754606;81;26215;-57
2020/12/15 08:20:41;;;;;;;56.80;24.27;;;;;;;-0.16;87.28;100803.18;1754479;81;26458;-59
2020/12/15 08:23:13;;;;;;;56.45;24.60;;;;;;;-0.13;87.39;100796.09;1754649;81;25744;-59
2020/12/15 08:25:43;;;;;;;60.70;26.48;;;;;;;-0.10;87.32;100800.96;1754819;81;26010;-58
2020/12/15 08:28:23;;;;;;;59.83;24.95;;;;;;;-0.09;87.23;100803.89;1754722;81;25709;-57
2020/12/15 08:30:56;;;;;;;62.00;25.97;;;;;;;-0.04;87.42;100812.53;1754270;81;25789;-60
2020/12/15 08:33:30;;;;;;;57.13;26.48;;;;;;;0.01;87.41;100811.87;1754667;81;26001;-58
2020/12/15 08:35:59;;;;;;;55.65;25.15;;;;;;;0.03;87.31;100807.93;1754596;81;26051;-57
2020/12/15 08:38:27;;;;;;;56.40;25.75;;;;;;;0.07;87.26;100812.27;1754648;81;25710;-58
2020/12/15 08:40:57;;;;;;;58.02;23.35;;;;;;;0.08;87.26;100802.73;1754455;81;26398;-58
2020/12/15 08:43:24;;;;;;;63.58;23.85;;;;;;;0.09;87.29;100794.27;1754612;81;25812;-58
2020/12/15 08:45:52;;;;;;;57.70;23.45;;;;;;;0.09;87.14;100799.58;1754713;81;25684;-57
2020/12/15 08:48:24;;;;;;;57.25;24.50;;;;;;;0.08;87.24;100809.92;1754668;81;26287;-57
2020/12/15 08:50:52;;;;;;;58.28;24.52;;;;;;;0.07;87.13;100805.63;1754412;81;26008;-57
2020/12/15 08:53:20;;;;;;;60.63;23.67;;;;;;;0.09;87.20;100800.91;1754547;81;26015;-56
2020/12/15 08:55:49;;;;;;;63.10;25.45;;;;;;;0.10;87.29;100809.17;1755096;81;25658;-52
2020/12/15 08:58:17;;;;;;;64.47;28.07;;;;;;;0.08;87.32;100802.73;1755396;81;25737;-47
2020/12/15 09:00:46;;;;;;;60.20;26.37;;;;;;;0.05;87.25;100797.90;1755213;81;25710;-56
2020/12/15 09:03:16;;;;;;;63.02;26.05;;;;;;;0.06;87.35;100801.36;1755350;81;25666;-58
2020/12/15 09:05:56;;;;;;;61.35;26.42;;;;;;;0.08;87.40;100799.28;1755243;81;26359;-58
2020/12/15 09:08:26;;;;;;;64.50;28.38;;;;;;;0.09;87.57;100791.61;1755275;81;25691;-58
2020/12/15 09:10:55;;;;;;;64.07;27.87;;;;;;;0.10;87.48;100796.70;1755376;81;25679;-50
2020/12/15 09:13:22;;;;;;;76.60;30.05;;;;;;;0.15;87.57;100798.66;1755196;81;25632;-59
2020/12/15 09:15:54;;;;;;;69.60;30.15;;;;;;;0.18;87.58;100795.55;1755304;81;25669;-55
2020/12/15 09:18:32;;;;;;;79.58;31.23;;;;;;;0.21;87.62;100800.95;1754264;81;26833;-55
2020/12/15 09:21:12;;;;;;;77.95;31.77;;;;;;;0.25;87.56;100802.11;1755265;81;25671;-57
2020/12/15 09:23:43;;;;;;;85.85;33.20;;;;;;;0.29;87.63;100801.93;1755268;81;25217;-59
2020/12/15 09:26:10;;;;;;;84.92;35.50;;;;;;;0.31;87.50;100797.21;1752664;81;25892;-58
2020/12/15 09:28:37;;;;;;;93.60;37.90;;;;;;;0.31;87.39;100796.69;1755291;81;25612;-53
2020/12/15 09:31:03;;;;;;;92.70;36.55;;;;;;;0.32;87.40;100793.50;1755198;81;26410;-59
2020/12/15 09:33:30;;;;;;;88.90;36.65;;;;;;;0.31;87.23;100795.35;1755106;81;25987;-57
2020/12/15 09:35:57;;;;;;;90.17;36.93;;;;;;;0.31;87.29;100800.67;1755485;81;25772;-59
2020/12/15 09:38:24;;;;;;;98.90;39.63;;;;;;;0.31;87.32;100803.34;1755632;81;25647;-55
2020/12/15 09:40:50;;;;;;;103.95;39.00;;;;;;;0.32;87.30;100803.64;1755647;81;25710;-60
2020/12/15 09:43:18;;;;;;;98.90;38.65;;;;;;;0.32;87.39;100798.32;1755631;81;25780;-54
2020/12/15 09:45:45;;;;;;;100.95;40.95;;;;;;;0.35;87.53;100805.02;1755535;81;25721;-57
2020/12/15 09:48:11;;;;;;;104.67;43.83;;;;;;;0.36;87.42;100803.47;1755591;81;25727;-51
2020/12/15 09:50:39;;;;;;;96.22;37.93;;;;;;;0.39;87.36;100790.73;1755577;81;26010;-51
2020/12/15 09:53:06;;;;;;;98.55;41.15;;;;;;;0.39;87.42;100793.39;1755732;81;25623;-57
2020/12/15 09:55:32;;;;;;;109.90;42.98;;;;;;;0.38;87.33;100801.11;1755576;81;25786;-52
2020/12/15 09:57:59;;;;;;;107.92;41.48;;;;;;;0.38;87.30;100799.25;1755536;81;25705;-55
2020/12/15 10:00:26;;;;;;;114.12;48.08;;;;;;;0.38;87.31;100803.23;1755691;81;26071;-56
2020/12/15 10:02:53;;;;;;;104.38;41.98;;;;;;;0.39;87.45;100799.52;1755610;81;26356;-58
2020/12/15 10:05:19;;;;;;;113.55;44.65;;;;;;;0.41;87.44;100792.14;1755671;81;25752;-52
2020/12/15 10:07:46;;;;;;;104.00;43.98;;;;;;;0.44;87.50;100796.18;1755556;81;25901;-63
2020/12/15 10:10:16;;;;;;;117.50;46.35;;;;;;;0.47;87.54;100800.52;1755474;81;26364;-54
2020/12/15 10:12:42;;;;;;;111.68;43.48;;;;;;;0.50;87.47;100800.59;1755466;81;25649;-60
2020/12/15 10:15:10;;;;;;;111.32;46.15;;;;;;;0.50;87.42;100795.28;1755529;81;25633;-58
2020/12/15 10:17:38;;;;;;;109.48;43.65;;;;;;;0.52;87.38;100795.84;1755671;81;25744;-52
2020/12/15 10:20:05;;;;;;;107.72;46.25;;;;;;;0.52;87.28;100797.98;1755632;81;26294;-52
2020/12/15 10:22:32;;;;;;;107.10;43.17;;;;;;;0.51;87.16;100795.05;1755455;81;25703;-48
2020/12/15 10:24:59;;;;;;;93.72;37.42;;;;;;;0.51;87.17;100788.39;1755488;81;25649;-54
2020/12/15 10:27:26;;;;;;;109.65;43.10;;;;;;;0.51;87.21;100784.40;1755636;81;25632;-58
2020/12/15 10:29:53;;;;;;;102.45;42.98;;;;;;;0.52;87.26;100787.86;1755742;81;26271;-57
2020/12/15 10:32:24;;;;;;;105.55;43.70;;;;;;;0.52;87.21;100787.34;1755546;81;26412;-60
2020/12/15 10:34:48;;;;;;;94.03;40.63;;;;;;;0.50;87.14;100783.30;1755163;81;25679;-58
2020/12/15 10:37:15;;;;;;;112.32;43.15;;;;;;;0.49;87.09;100784.33;1755521;81;25661;-54
2020/12/15 10:39:42;;;;;;;105.75;42.90;;;;;;;0.48;87.25;100782.20;1755670;81;25667;-52
2020/12/15 10:42:10;;;;;;;105.92;41.95;;;;;;;0.47;87.30;100783.22;1755686;81;25678;-60
2020/12/15 10:44:37;;;;;;;98.92;39.15;;;;;;;0.46;87.31;100778.95;1755579;81;25742;-57
2020/12/15 10:47:03;;;;;;;92.90;39.05;;;;;;;0.48;87.27;100772.08;1755544;81;25626;-53
2020/12/15 10:49:30;;;;;;;104.32;42.80;;;;;;;0.49;87.41;100777.14;1755526;81;25702;-54
2020/12/15 10:51:57;;;;;;;100.75;41.20;;;;;;;0.48;87.28;100771.55;1755455;81;25633;-53
2020/12/15 10:54:25;;;;;;;108.30;42.48;;;;;;;0.49;87.36;100775.81;1755618;81;25595;-50
2020/12/15 10:56:52;;;;;;;87.20;38.13;;;;;;;0.51;87.42;100778.24;1755564;81;25914;-57
2020/12/15 10:59:20;;;;;;;102.92;43.10;;;;;;;0.52;87.34;100776.69;1755466;81;25713;-48
2020/12/15 11:01:51;;;;;;;99.72;41.37;;;;;;;0.55;87.36;100783.42;1755564;81;25662;-57
2020/12/15 11:04:18;;;;;;;91.37;37.13;;;;;;;0.55;87.34;100781.56;1755627;81;25615;-56
2020/12/15 11:06:46;;;;;;;86.37;36.45;;;;;;;0.56;87.26;100778.36;1755625;81;25690;-55
2020/12/15 11:09:15;;;;;;;90.25;37.50;;;;;;;0.57;87.29;100772.02;1755622;81;27504;-56
2020/12/15 11:11:48;;;;;;;87.53;37.95;;;;;;;0.60;87.33;100762.23;1755391;81;25664;-52
2020/12/15 11:14:16;;;;;;;88.40;38.80;;;;;;;0.60;87.33;100778.21;1755540;81;25637;-51
2020/12/15 11:16:43;;;;;;;96.60;40.20;;;;;;;0.60;87.32;100763.57;1755527;81;25636;-56
2020/12/15 11:19:10;;;;;;;91.70;39.60;;;;;;;0.64;87.36;100768.71;1755588;81;25667;-58
2020/12/15 11:21:37;;;;;;;87.42;37.95;;;;;;;0.66;87.40;100763.96;1755458;81;27074;-56